• Join FlightAware (Why Join?)
  • Login
  • US Flag 
08:03PM EST


 

Airport Tracker/Info


-or-


 

Live Flight TrackerFlight Track Log ✈ FDX1730 ✈ 04-Oct-2013 ✈ KIND - KBWI

Flight Track Log - Related Links

Times and Time Zones

All times are in EDT time to prevent confusion due to time zone crossing. See the FDX1730 flight status page for this flight to view local times or setup timezone preferences in your user account.

Time Position Orientation Groundspeed Altitude Reporting Facility
EDT Latitude Longitude Course Direction KTS MPH feet Rate Location/Type
04:29AM 39.7000 -86.3040 222° Southwest 153 176 1,600  Level FlightAware
04:30AM 39.6910 -86.3160 226° Southwest 199 229 2,600 3,180 Climbing FlightAware
04:30AM 39.6850 -86.3200 207° Southwest 104 120 3,000 1,860 Climbing FlightAware
04:30AM 39.6640 -86.3320 204° Southwest 203 234 3,700 2,040 Climbing FlightAware
04:31AM 39.6420 -86.3440 203° Southwest 284 327 4,600 3,060 Climbing FlightAware
04:31AM 39.6320 -86.3470 193° South 257 296 5,200 4,140 Climbing FlightAware
04:31AM 39.6270 -86.3480 189° South 221 254 5,500 3,720 Climbing FlightAware
04:31AM 39.5930 -86.3340 162° South 314 361 7,200 3,660 Climbing FlightAware
04:31AM 39.5850 -86.3230 133° Southeast 318 366 7,700 3,840 Climbing FlightAware
04:31AM 39.5810 -86.3140 120° Southeast 302 348 8,100 3,720 Climbing FlightAware
04:32AM 39.5780 -86.2970 103° East 328 377 8,700 3,720 Climbing FlightAware
04:32AM 39.5820 -86.2470 84° East 368 423 10,400 3,120 Climbing FlightAware
04:33AM 39.5920 -86.1840 78° East 262 302 11,800 3,060 Climbing FlightAware
04:33AM 39.6040 -86.1070 79° East 281 323 13,900 3,300 Climbing FlightAware
04:34AM 39.6140 -86.0250 81° East 429 494 15,800 2,520 Climbing FlightAware
04:34AM 39.6250 -85.9350 81° East 506 582 17,000 2,340 Climbing FlightAware
04:35AM 39.6340 -85.8550 82° East 337 388 18,500 2,940 Climbing FlightAware
04:36AM 39.6460 -85.7570 81° East 583 671 20,300 2,700 Climbing FlightAware
04:36AM 39.6590 -85.6590 80° East 567 652 21,800 2,280 Climbing FlightAware
04:37AM 39.6700 -85.5680 81° East 447 514 23,000 2,100 Climbing FlightAware
04:37AM 39.6810 -85.4730 81° East 360 414 24,200 1,980 Climbing FlightAware
04:38AM 39.6940 -85.3660 81° East 591 680 25,400 1,860 Climbing FlightAware
04:38AM 39.7070 -85.2540 81° East 584 672 26,500 1,800 Climbing FlightAware
04:39AM 39.7180 -85.1610 81° East 445 512 27,500 2,340 Climbing FlightAware
04:40AM 39.7310 -85.0500 81° East 494 568 29,200 2,580 Climbing FlightAware
04:40AM 39.7430 -84.9460 81° East 570 656 30,600 2,400 Climbing FlightAware
04:41AM 39.7450 -84.8210 89° East 476 548 32,300 2,280 Climbing FlightAware
04:41AM 39.7440 -84.7360 91° East 346 398 33,300 1,620 Climbing FlightAware
04:42AM 39.7410 -84.6190 92° East 389 448 34,200 1,140 Climbing FlightAware
04:43AM 39.7390 -84.5100 91° East 436 502 34,800 600 Climbing FlightAware
04:43AM 39.7370 -84.3930 91° East 641 738 35,000 120 Climbing FlightAware
04:44AM 39.7350 -84.3010 92° East 524 603 35,000  Level FlightAware
04:45AM 39.7320 -84.1610 92° East 440 506 35,000  Level FlightAware
04:45AM 39.7300 -84.0510 91° East 571 657 35,000  Level FlightAware
04:46AM 39.7270 -83.9400 92° East 619 712 35,000  Level FlightAware
04:46AM 39.7250 -83.8470 92° East 444 511 35,000  Level FlightAware
04:47AM 39.7220 -83.7330 92° East 641 738 35,000  Level FlightAware
04:47AM 39.7200 -83.6450 92° East 616 709 35,000  Level FlightAware
04:48AM 39.7170 -83.5280 92° East 474 545 35,000  Level FlightAware
04:49AM 39.7130 -83.4010 92° East 536 617 35,000  Level FlightAware
04:49AM 39.7100 -83.2890 92° East 607 699 35,000  Level FlightAware
04:50AM 39.7060 -83.1680 92° East 513 590 35,000  Level FlightAware
04:51AM 39.7030 -83.0640 92° East 556 640 35,000  Level FlightAware
04:51AM 39.6990 -82.9560 93° East 524 603 35,000  Level FlightAware
04:52AM 39.6960 -82.8670 92° East 322 371 35,000  Level FlightAware
04:52AM 39.6920 -82.7500 93° East 378 435 35,000  Level FlightAware
04:53AM 39.6890 -82.6450 92° East 393 452 35,000  Level FlightAware
04:54AM 39.6850 -82.5340 93° East 608 700 35,000  Level FlightAware
04:54AM 39.6810 -82.4260 93° East 583 671 35,000  Level FlightAware
04:55AM 39.6770 -82.3320 93° East 429 494 35,000  Level FlightAware
04:55AM 39.6730 -82.2260 93° East 591 680 35,000  Level FlightAware
04:56AM 39.6690 -82.1190 93° East 523 602 35,000  Level FlightAware
04:56AM 39.6650 -82.0240 93° East 441 507 35,000  Level FlightAware
04:57AM 39.6610 -81.9200 93° East 449 517 35,000  Level FlightAware
04:58AM 39.6550 -81.8150 94° East 538 619 35,000  Level FlightAware
04:58AM 39.6500 -81.7100 94° East 608 700 35,000  Level FlightAware
04:59AM 39.6440 -81.6090 94° East 597 687 35,000  Level FlightAware
04:59AM 39.6380 -81.5090 94° East 585 673 35,000  Level FlightAware
05:00AM 39.6320 -81.4100 94° East 420 483 35,000  Level FlightAware
05:00AM 39.6260 -81.3040 94° East 431 496 35,000  Level FlightAware
05:01AM 39.6200 -81.1970 94° East 547 629 35,000  Level FlightAware
05:02AM 39.6140 -81.1010 95° East 503 579 35,000  Level FlightAware
05:02AM 39.6080 -80.9950 94° East 503 579 35,000  Level FlightAware
05:03AM 39.6020 -80.8980 95° East 406 467 35,000  Level FlightAware
05:03AM 39.5960 -80.7950 94° East 538 619 35,000  Level FlightAware
05:04AM 39.5900 -80.6960 94° East 395 455 35,000  Level FlightAware
05:05AM 39.5830 -80.5940 95° East 478 550 35,000  Level FlightAware
05:05AM 39.5770 -80.4970 95° East 490 564 35,000  Level FlightAware
05:06AM 39.5700 -80.3900 95° East 371 427 35,000  Level FlightAware
05:06AM 39.5620 -80.2740 95° East 529 609 35,000  Level FlightAware
05:07AM 39.5560 -80.1900 95° East 335 386 35,000  Level FlightAware
05:08AM 39.5480 -80.0760 95° East 516 594 35,000  Level FlightAware
05:08AM 39.5430 -79.9910 94° East 492 566 35,000  Level FlightAware
05:09AM 39.5350 -79.8740 95° East 563 648 35,000  Level FlightAware
05:09AM 39.5280 -79.7650 95° East 287 330 35,000  Level FlightAware
05:10AM 39.5210 -79.6610 95° East 503 579 35,000  Level FlightAware
05:11AM 39.5110 -79.5110 95° East 383 441 35,000 -180 Level FlightAware
05:12AM 39.5030 -79.3940 95° East 551 634 34,800 -1,260 Descending FlightAware
05:12AM 39.4960 -79.2990 95° East 492 566 33,600 -2,100 Descending FlightAware
05:13AM 39.4890 -79.1970 95° East 468 539 32,300 -2,100 Descending FlightAware
05:13AM 39.4830 -79.1100 95° East 324 373 31,300 -1,920 Descending FlightAware
05:14AM 39.4760 -79.0170 96° East 300 345 30,200 -1,860 Descending FlightAware
05:14AM 39.4690 -78.9210 95° East 492 566 29,100 -1,920 Descending FlightAware
05:15AM 39.4620 -78.8290 96° East 480 552 27,900 -1,980 Descending FlightAware
05:16AM 39.4550 -78.7390 96° East 529 609 26,800 -1,980 Descending FlightAware
05:16AM 39.4490 -78.6540 95° East 516 594 25,700 -2,040 Descending FlightAware
05:17AM 39.4410 -78.5530 96° East 480 552 24,400 -2,040 Descending FlightAware
05:17AM 39.4350 -78.4720 95° East 360 414 23,400 -1,860 Descending FlightAware
05:18AM 39.4280 -78.3830 96° East 348 400 22,300 -1,920 Descending FlightAware
05:19AM 39.4220 -78.3040 96° East 372 428 21,200 -1,980 Descending FlightAware
05:19AM 39.4140 -78.2080 96° East 456 525 19,900 -1,860 Descending FlightAware
05:20AM 39.4090 -78.1350 95° East 336 387 19,000 -1,980 Descending FlightAware
05:20AM 39.4010 -78.0510 97° East 411 473 17,700 -2,400 Descending FlightAware
05:21AM 39.3890 -77.9770 102° East 382 440 16,300 -2,280 Descending FlightAware
05:21AM 39.3740 -77.8980 104° East 529 609 15,100 -2,280 Descending FlightAware
05:22AM 39.3600 -77.8220 103° East 282 325 13,700 -2,400 Descending FlightAware
05:23AM 39.3460 -77.7470 104° East 399 459 12,400 -2,100 Descending FlightAware
05:23AM 39.3320 -77.6720 104° East 382 440 11,300 -1,620 Descending FlightAware
05:24AM 39.3190 -77.6020 103° East 394 453 10,500 -1,080 Descending FlightAware
05:24AM 39.3060 -77.5340 104° East 236 272 10,100 -900 Descending FlightAware
05:25AM 39.3010 -77.5050 103° East 298 343 9,700 -1,500 Descending FlightAware
05:25AM 39.2930 -77.4600 103° East 368 423 9,100 -1,680 Descending FlightAware
05:25AM 39.2870 -77.4260 103° East 209 241 8,600 -1,440 Descending FlightAware
05:26AM 39.2800 -77.3900 104° East 209 241 8,100 -1,440 Descending FlightAware
05:26AM 39.2700 -77.3390 104° East 197 227 7,400 -1,440 Descending FlightAware
05:27AM 39.2640 -77.3060 103° East 186 214 6,900 -1,500 Descending FlightAware
05:27AM 39.2570 -77.2700 104° East 247 284 6,400 -1,500 Descending FlightAware
05:27AM 39.2490 -77.2300 104° East 298 343 5,800 -1,380 Descending FlightAware
05:28AM 39.2430 -77.1970 103° East 294 338 5,400 -1,320 Descending FlightAware
05:28AM 39.2370 -77.1690 105° East 186 214 4,900 -1,620 Descending FlightAware
05:29AM 39.2260 -77.1060 103° East 286 329 3,900 -1,680 Descending FlightAware
05:29AM 39.2190 -77.0740 106° East 298 343 3,400 -1,380 Descending FlightAware
05:29AM 39.2130 -77.0430 104° East 186 214 3,000 -780 Descending FlightAware
05:30AM 39.2060 -77.0110 106° East 202 232 2,900 -180 Descending FlightAware
05:30AM 39.1940 -76.9750 113° Southeast 302 348 2,900  Level FlightAware
05:30AM 39.1900 -76.9590 108° East 202 232 2,900  Level FlightAware
05:31AM 39.1870 -76.9150 95° East 300 345 2,900  Level FlightAware
05:31AM 39.1860 -76.8920 93° East 202 232 2,900 -600 Level FlightAware
05:31AM 39.1840 -76.8640 95° East 72 83 2,500 -1,140 Descending FlightAware
05:32AM 39.1810 -76.8060 94° East 214 246 1,700 -1,080 Descending FlightAware
05:32AM 39.1800 -76.7860 94° East 180 207 1,400 -900 Descending FlightAware
05:33AM 39.1780 -76.7640 97° East 177 204 1,100 -780 Descending FlightAware
05:33AM 39.1770 -76.7310 92° East 192 221 700 -780 Descending FlightAware
05:34AM 39.1750 -76.6990 95° East 128 147 200 -780 Descending FlightAware
05:41AM 39.1667 -76.6667 142° Southeast  Level FlightAware Approximate
05:42AM 39.1754 -76.6683 142° Southeast  Level Estimated